sensor_id;sensor_type;location;lat;lon;timestamp;P1;durP1;ratioP1;P2;durP2;ratioP2
27303;SDS011;14791;52.392;13.092;2023-05-10T00:00:59;1.57;;;1.53;;
27303;SDS011;14791;52.392;13.092;2023-05-10T00:03:27;2.20;;;2.12;;
27303;SDS011;14791;52.392;13.092;2023-05-10T00:05:56;1.90;;;1.90;;
27303;SDS011;14791;52.392;13.092;2023-05-10T00:08:26;2.00;;;2.00;;
27303;SDS011;14791;52.392;13.092;2023-05-10T00:10:55;2.23;;;2.13;;
27303;SDS011;14791;52.392;13.092;2023-05-10T00:13:24;2.70;;;2.60;;
27303;SDS011;14791;52.392;13.092;2023-05-10T00:15:52;2.30;;;2.20;;
27303;SDS011;14791;52.392;13.092;2023-05-10T00:18:21;1.70;;;1.70;;
27303;SDS011;14791;52.392;13.092;2023-05-10T00:20:50;2.05;;;2.05;;
27303;SDS011;14791;52.392;13.092;2023-05-10T00:23:19;2.65;;;2.55;;
27303;SDS011;14791;52.392;13.092;2023-05-10T00:25:48;2.50;;;2.40;;
27303;SDS011;14791;52.392;13.092;2023-05-10T00:28:17;2.93;;;2.73;;
27303;SDS011;14791;52.392;13.092;2023-05-10T00:30:46;2.37;;;2.27;;
27303;SDS011;14791;52.392;13.092;2023-05-10T00:33:15;2.40;;;2.40;;
27303;SDS011;14791;52.392;13.092;2023-05-10T00:35:44;2.60;;;2.50;;
27303;SDS011;14791;52.392;13.092;2023-05-10T00:38:13;1.85;;;1.85;;
27303;SDS011;14791;52.392;13.092;2023-05-10T00:40:41;2.40;;;2.30;;
27303;SDS011;14791;52.392;13.092;2023-05-10T00:43:12;2.55;;;2.47;;
27303;SDS011;14791;52.392;13.092;2023-05-10T00:45:41;2.87;;;2.77;;
27303;SDS011;14791;52.392;13.092;2023-05-10T00:48:11;2.73;;;2.70;;
27303;SDS011;14791;52.392;13.092;2023-05-10T00:50:41;2.90;;;2.70;;
27303;SDS011;14791;52.392;13.092;2023-05-10T00:53:10;2.40;;;2.30;;
27303;SDS011;14791;52.392;13.092;2023-05-10T00:55:39;2.40;;;2.30;;
27303;SDS011;14791;52.392;13.092;2023-05-10T00:58:08;2.25;;;2.15;;
27303;SDS011;14791;52.392;13.092;2023-05-10T01:00:37;2.40;;;2.37;;
27303;SDS011;14791;52.392;13.092;2023-05-10T01:03:08;2.40;;;2.40;;
27303;SDS011;14791;52.392;13.092;2023-05-10T01:05:38;2.87;;;2.77;;
27303;SDS011;14791;52.392;13.092;2023-05-10T01:08:07;2.30;;;2.30;;
27303;SDS011;14791;52.392;13.092;2023-05-10T01:10:36;2.50;;;2.40;;
27303;SDS011;14791;52.392;13.092;2023-05-10T01:13:05;2.00;;;2.00;;
27303;SDS011;14791;52.392;13.092;2023-05-10T01:15:34;2.12;;;2.12;;
27303;SDS011;14791;52.392;13.092;2023-05-10T01:18:04;2.37;;;2.27;;
27303;SDS011;14791;52.392;13.092;2023-05-10T01:20:35;2.53;;;2.33;;
27303;SDS011;14791;52.392;13.092;2023-05-10T01:31:21;2.37;;;2.27;;
27303;SDS011;14791;52.392;13.092;2023-05-10T01:34:06;2.23;;;2.13;;
27303;SDS011;14791;52.392;13.092;2023-05-10T01:36:40;2.20;;;1.97;;
27303;SDS011;14791;52.392;13.092;2023-05-10T01:39:22;2.30;;;2.20;;
27303;SDS011;14791;52.392;13.092;2023-05-10T01:41:56;2.70;;;2.60;;
27303;SDS011;14791;52.392;13.092;2023-05-10T01:44:29;2.60;;;2.50;;
27303;SDS011;14791;52.392;13.092;2023-05-10T01:47:07;2.10;;;2.00;;
27303;SDS011;14791;52.392;13.092;2023-05-10T01:49:39;2.17;;;2.13;;
27303;SDS011;14791;52.392;13.092;2023-05-10T01:52:10;2.67;;;2.57;;
27303;SDS011;14791;52.392;13.092;2023-05-10T01:54:44;2.17;;;2.07;;
27303;SDS011;14791;52.392;13.092;2023-05-10T01:57:13;2.50;;;2.40;;
27303;SDS011;14791;52.392;13.092;2023-05-10T01:59:43;3.20;;;3.00;;
27303;SDS011;14791;52.392;13.092;2023-05-10T02:02:15;2.83;;;2.63;;
27303;SDS011;14791;52.392;13.092;2023-05-10T02:04:47;2.93;;;2.83;;
27303;SDS011;14791;52.392;13.092;2023-05-10T02:07:19;2.60;;;2.50;;
27303;SDS011;14791;52.392;13.092;2023-05-10T02:09:50;2.30;;;2.30;;
27303;SDS011;14791;52.392;13.092;2023-05-10T02:12:20;3.00;;;2.90;;
27303;SDS011;14791;52.392;13.092;2023-05-10T02:14:52;2.90;;;2.80;;
27303;SDS011;14791;52.392;13.092;2023-05-10T02:17:22;2.80;;;2.70;;
27303;SDS011;14791;52.392;13.092;2023-05-10T02:19:53;3.00;;;2.90;;
27303;SDS011;14791;52.392;13.092;2023-05-10T02:22:24;2.50;;;2.50;;
27303;SDS011;14791;52.392;13.092;2023-05-10T02:24:55;2.70;;;2.60;;
27303;SDS011;14791;52.392;13.092;2023-05-10T02:27:28;2.70;;;2.60;;
27303;SDS011;14791;52.392;13.092;2023-05-10T02:29:58;3.30;;;3.20;;
27303;SDS011;14791;52.392;13.092;2023-05-10T02:32:27;2.70;;;2.60;;
27303;SDS011;14791;52.392;13.092;2023-05-10T02:34:57;3.33;;;3.17;;
27303;SDS011;14791;52.392;13.092;2023-05-10T02:37:28;2.73;;;2.60;;
27303;SDS011;14791;52.392;13.092;2023-05-10T02:39:59;2.37;;;2.37;;
27303;SDS011;14791;52.392;13.092;2023-05-10T02:42:31;2.57;;;2.37;;
27303;SDS011;14791;52.392;13.092;2023-05-10T02:45:07;2.73;;;2.63;;
27303;SDS011;14791;52.392;13.092;2023-05-10T02:47:38;2.90;;;2.80;;
27303;SDS011;14791;52.392;13.092;2023-05-10T02:50:07;2.90;;;2.80;;
27303;SDS011;14791;52.392;13.092;2023-05-10T02:52:42;2.87;;;2.77;;
27303;SDS011;14791;52.392;13.092;2023-05-10T02:55:12;2.10;;;2.10;;
27303;SDS011;14791;52.392;13.092;2023-05-10T02:57:56;2.60;;;2.50;;
27303;SDS011;14791;52.392;13.092;2023-05-10T03:00:22;3.03;;;2.93;;
27303;SDS011;14791;52.392;13.092;2023-05-10T03:02:52;2.77;;;2.67;;
27303;SDS011;14791;52.392;13.092;2023-05-10T03:05:22;3.17;;;2.97;;
27303;SDS011;14791;52.392;13.092;2023-05-10T03:07:51;3.10;;;3.00;;
27303;SDS011;14791;52.392;13.092;2023-05-10T03:10:22;3.00;;;2.90;;
27303;SDS011;14791;52.392;13.092;2023-05-10T03:13:01;3.20;;;3.00;;
27303;SDS011;14791;52.392;13.092;2023-05-10T03:15:36;2.90;;;2.70;;
27303;SDS011;14791;52.392;13.092;2023-05-10T03:18:28;3.33;;;3.17;;
27303;SDS011;14791;52.392;13.092;2023-05-10T03:20:57;3.00;;;2.90;;
27303;SDS011;14791;52.392;13.092;2023-05-10T03:23:29;2.80;;;2.70;;
27303;SDS011;14791;52.392;13.092;2023-05-10T03:25:59;2.80;;;2.70;;
27303;SDS011;14791;52.392;13.092;2023-05-10T03:28:30;2.60;;;2.50;;
27303;SDS011;14791;52.392;13.092;2023-05-10T03:31:03;2.97;;;2.87;;
27303;SDS011;14791;52.392;13.092;2023-05-10T03:33:34;2.57;;;2.47;;
27303;SDS011;14791;52.392;13.092;2023-05-10T03:36:03;2.90;;;2.80;;
27303;SDS011;14791;52.392;13.092;2023-05-10T03:38:32;3.00;;;2.80;;
27303;SDS011;14791;52.392;13.092;2023-05-10T03:41:01;2.93;;;2.83;;
27303;SDS011;14791;52.392;13.092;2023-05-10T03:43:30;2.50;;;2.40;;
27303;SDS011;14791;52.392;13.092;2023-05-10T03:46:01;2.90;;;2.80;;
27303;SDS011;14791;52.392;13.092;2023-05-10T03:48:32;3.00;;;2.90;;
27303;SDS011;14791;52.392;13.092;2023-05-10T03:51:01;3.30;;;3.10;;
27303;SDS011;14791;52.392;13.092;2023-05-10T03:53:30;3.20;;;3.10;;
27303;SDS011;14791;52.392;13.092;2023-05-10T03:55:59;2.67;;;2.60;;
27303;SDS011;14791;52.392;13.092;2023-05-10T03:58:28;2.03;;;2.03;;
27303;SDS011;14791;52.392;13.092;2023-05-10T04:00:58;3.03;;;2.93;;
27303;SDS011;14791;52.392;13.092;2023-05-10T04:03:27;2.77;;;2.67;;
27303;SDS011;14791;52.392;13.092;2023-05-10T04:05:59;2.80;;;2.70;;
27303;SDS011;14791;52.392;13.092;2023-05-10T04:08:29;2.50;;;2.40;;
27303;SDS011;14791;52.392;13.092;2023-05-10T04:11:06;2.30;;;2.23;;
27303;SDS011;14791;52.392;13.092;2023-05-10T04:13:36;2.80;;;2.70;;
27303;SDS011;14791;52.392;13.092;2023-05-10T04:16:06;3.10;;;2.90;;
27303;SDS011;14791;52.392;13.092;2023-05-10T04:18:35;3.10;;;2.90;;
27303;SDS011;14791;52.392;13.092;2023-05-10T04:21:04;3.03;;;2.93;;
27303;SDS011;14791;52.392;13.092;2023-05-10T04:23:35;3.03;;;2.93;;
27303;SDS011;14791;52.392;13.092;2023-05-10T04:26:04;2.60;;;2.50;;
27303;SDS011;14791;52.392;13.092;2023-05-10T04:28:33;2.87;;;2.77;;
27303;SDS011;14791;52.392;13.092;2023-05-10T04:31:05;3.07;;;2.87;;
27303;SDS011;14791;52.392;13.092;2023-05-10T04:33:36;3.00;;;2.90;;
27303;SDS011;14791;52.392;13.092;2023-05-10T04:36:05;3.20;;;2.93;;
27303;SDS011;14791;52.392;13.092;2023-05-10T04:38:34;2.80;;;2.60;;
27303;SDS011;14791;52.392;13.092;2023-05-10T04:41:06;2.83;;;2.73;;
27303;SDS011;14791;52.392;13.092;2023-05-10T04:43:37;2.17;;;2.17;;
27303;SDS011;14791;52.392;13.092;2023-05-10T04:46:06;2.60;;;2.50;;
27303;SDS011;14791;52.392;13.092;2023-05-10T04:48:35;2.80;;;2.70;;
27303;SDS011;14791;52.392;13.092;2023-05-10T04:51:04;2.50;;;2.40;;
27303;SDS011;14791;52.392;13.092;2023-05-10T04:53:33;2.80;;;2.70;;
27303;SDS011;14791;52.392;13.092;2023-05-10T04:56:02;2.60;;;2.50;;
27303;SDS011;14791;52.392;13.092;2023-05-10T04:58:32;2.80;;;2.70;;
27303;SDS011;14791;52.392;13.092;2023-05-10T05:01:07;2.33;;;2.33;;
27303;SDS011;14791;52.392;13.092;2023-05-10T05:03:37;2.47;;;2.40;;
27303;SDS011;14791;52.392;13.092;2023-05-10T05:06:06;2.43;;;2.23;;
27303;SDS011;14791;52.392;13.092;2023-05-10T05:08:35;2.40;;;2.30;;
27303;SDS011;14791;52.392;13.092;2023-05-10T05:11:04;2.60;;;2.40;;
27303;SDS011;14791;52.392;13.092;2023-05-10T05:13:33;2.40;;;2.30;;
27303;SDS011;14791;52.392;13.092;2023-05-10T05:16:02;2.47;;;2.27;;
27303;SDS011;14791;52.392;13.092;2023-05-10T05:18:32;2.33;;;2.30;;
27303;SDS011;14791;52.392;13.092;2023-05-10T05:21:01;2.80;;;2.60;;
27303;SDS011;14791;52.392;13.092;2023-05-10T05:23:30;2.47;;;2.37;;
27303;SDS011;14791;52.392;13.092;2023-05-10T05:25:59;2.10;;;2.10;;
27303;SDS011;14791;52.392;13.092;2023-05-10T05:28:28;2.45;;;2.35;;
27303;SDS011;14791;52.392;13.092;2023-05-10T05:30:58;2.20;;;2.10;;
27303;SDS011;14791;52.392;13.092;2023-05-10T05:33:27;2.00;;;2.00;;
27303;SDS011;14791;52.392;13.092;2023-05-10T05:35:56;2.53;;;2.33;;
27303;SDS011;14791;52.392;13.092;2023-05-10T05:38:27;2.20;;;2.20;;
27303;SDS011;14791;52.392;13.092;2023-05-10T05:40:55;2.70;;;2.50;;
27303;SDS011;14791;52.392;13.092;2023-05-10T05:43:25;2.30;;;2.30;;
27303;SDS011;14791;52.392;13.092;2023-05-10T05:45:54;2.33;;;2.23;;
27303;SDS011;14791;52.392;13.092;2023-05-10T05:48:24;2.60;;;2.50;;
27303;SDS011;14791;52.392;13.092;2023-05-10T05:50:56;2.33;;;2.23;;
27303;SDS011;14791;52.392;13.092;2023-05-10T05:53:26;2.20;;;2.20;;
27303;SDS011;14791;52.392;13.092;2023-05-10T05:55:55;2.10;;;2.02;;
27303;SDS011;14791;52.392;13.092;2023-05-10T05:58:25;1.85;;;1.85;;
27303;SDS011;14791;52.392;13.092;2023-05-10T06:00:54;2.08;;;2.08;;
27303;SDS011;14791;52.392;13.092;2023-05-10T06:03:24;1.98;;;1.87;;
27303;SDS011;14791;52.392;13.092;2023-05-10T06:05:53;1.98;;;1.90;;
27303;SDS011;14791;52.392;13.092;2023-05-10T06:08:22;2.17;;;2.12;;
27303;SDS011;14791;52.392;13.092;2023-05-10T06:10:50;2.55;;;2.30;;
27303;SDS011;14791;52.392;13.092;2023-05-10T06:13:19;2.08;;;2.08;;
27303;SDS011;14791;52.392;13.092;2023-05-10T06:15:48;2.25;;;2.15;;
27303;SDS011;14791;52.392;13.092;2023-05-10T06:18:18;2.12;;;1.87;;
27303;SDS011;14791;52.392;13.092;2023-05-10T06:20:46;2.40;;;1.98;;
27303;SDS011;14791;52.392;13.092;2023-05-10T06:23:17;1.80;;;1.80;;
27303;SDS011;14791;52.392;13.092;2023-05-10T06:25:46;1.90;;;1.90;;
27303;SDS011;14791;52.392;13.092;2023-05-10T06:28:15;1.85;;;1.85;;
27303;SDS011;14791;52.392;13.092;2023-05-10T06:30:43;1.75;;;1.70;;
27303;SDS011;14791;52.392;13.092;2023-05-10T06:33:12;2.00;;;1.90;;
27303;SDS011;14791;52.392;13.092;2023-05-10T06:35:43;1.65;;;1.65;;
27303;SDS011;14791;52.392;13.092;2023-05-10T06:38:11;1.87;;;1.77;;
27303;SDS011;14791;52.392;13.092;2023-05-10T06:40:43;1.82;;;1.82;;
27303;SDS011;14791;52.392;13.092;2023-05-10T06:43:12;1.72;;;1.72;;
27303;SDS011;14791;52.392;13.092;2023-05-10T06:45:41;2.25;;;2.10;;
27303;SDS011;14791;52.392;13.092;2023-05-10T06:48:10;2.08;;;1.98;;
27303;SDS011;14791;52.392;13.092;2023-05-10T06:50:39;2.10;;;2.00;;
27303;SDS011;14791;52.392;13.092;2023-05-10T06:53:08;1.85;;;1.85;;
27303;SDS011;14791;52.392;13.092;2023-05-10T06:55:37;2.33;;;2.22;;
27303;SDS011;14791;52.392;13.092;2023-05-10T06:58:06;1.70;;;1.70;;
27303;SDS011;14791;52.392;13.092;2023-05-10T07:00:35;1.90;;;1.87;;
27303;SDS011;14791;52.392;13.092;2023-05-10T07:03:11;1.57;;;1.57;;
27303;SDS011;14791;52.392;13.092;2023-05-10T07:05:35;1.95;;;1.85;;
27303;SDS011;14791;52.392;13.092;2023-05-10T07:08:04;1.77;;;1.77;;
27303;SDS011;14791;52.392;13.092;2023-05-10T07:10:33;2.30;;;2.20;;
27303;SDS011;14791;52.392;13.092;2023-05-10T07:13:02;1.82;;;1.70;;
27303;SDS011;14791;52.392;13.092;2023-05-10T07:15:31;1.87;;;1.85;;
27303;SDS011;14791;52.392;13.092;2023-05-10T07:18:00;2.17;;;2.10;;
27303;SDS011;14791;52.392;13.092;2023-05-10T07:20:31;2.58;;;2.45;;
27303;SDS011;14791;52.392;13.092;2023-05-10T07:23:00;1.87;;;1.80;;
27303;SDS011;14791;52.392;13.092;2023-05-10T07:25:29;1.82;;;1.82;;
27303;SDS011;14791;52.392;13.092;2023-05-10T07:27:58;1.65;;;1.65;;
27303;SDS011;14791;52.392;13.092;2023-05-10T07:30:27;1.98;;;1.85;;
27303;SDS011;14791;52.392;13.092;2023-05-10T07:32:55;2.35;;;2.25;;
27303;SDS011;14791;52.392;13.092;2023-05-10T07:35:25;1.85;;;1.75;;
27303;SDS011;14791;52.392;13.092;2023-05-10T07:37:54;2.27;;;2.17;;
27303;SDS011;14791;52.392;13.092;2023-05-10T07:40:23;1.60;;;1.60;;
27303;SDS011;14791;52.392;13.092;2023-05-10T07:42:52;1.87;;;1.77;;
27303;SDS011;14791;52.392;13.092;2023-05-10T07:45:22;1.98;;;1.87;;
27303;SDS011;14791;52.392;13.092;2023-05-10T07:47:51;3.40;;;2.00;;
27303;SDS011;14791;52.392;13.092;2023-05-10T07:50:20;2.05;;;2.05;;
27303;SDS011;14791;52.392;13.092;2023-05-10T07:52:49;1.80;;;1.80;;
27303;SDS011;14791;52.392;13.092;2023-05-10T07:55:18;1.90;;;1.80;;
27303;SDS011;14791;52.392;13.092;2023-05-10T07:57:49;2.30;;;2.20;;
27303;SDS011;14791;52.392;13.092;2023-05-10T08:00:18;2.20;;;2.00;;
27303;SDS011;14791;52.392;13.092;2023-05-10T08:02:48;1.90;;;1.85;;
27303;SDS011;14791;52.392;13.092;2023-05-10T08:05:17;1.62;;;1.52;;
27303;SDS011;14791;52.392;13.092;2023-05-10T08:07:46;2.27;;;2.17;;
27303;SDS011;14791;52.392;13.092;2023-05-10T08:10:14;1.60;;;1.50;;
27303;SDS011;14791;52.392;13.092;2023-05-10T08:12:43;1.95;;;1.95;;
27303;SDS011;14791;52.392;13.092;2023-05-10T08:15:12;1.50;;;1.50;;
27303;SDS011;14791;52.392;13.092;2023-05-10T08:17:41;1.98;;;1.87;;
27303;SDS011;14791;52.392;13.092;2023-05-10T08:20:10;2.17;;;1.82;;
27303;SDS011;14791;52.392;13.092;2023-05-10T08:22:41;2.35;;;2.25;;
27303;SDS011;14791;52.392;13.092;2023-05-10T08:25:10;2.17;;;2.00;;
27303;SDS011;14791;52.392;13.092;2023-05-10T08:27:39;2.42;;;2.33;;
27303;SDS011;14791;52.392;13.092;2023-05-10T08:30:08;2.27;;;2.17;;
27303;SDS011;14791;52.392;13.092;2023-05-10T08:32:38;2.10;;;2.10;;
27303;SDS011;14791;52.392;13.092;2023-05-10T08:35:07;1.50;;;1.50;;
27303;SDS011;14791;52.392;13.092;2023-05-10T08:37:36;2.35;;;2.20;;
27303;SDS011;14791;52.392;13.092;2023-05-10T08:40:05;2.08;;;2.00;;
27303;SDS011;14791;52.392;13.092;2023-05-10T08:42:39;2.52;;;2.40;;
27303;SDS011;14791;52.392;13.092;2023-05-10T08:45:10;2.80;;;2.50;;
27303;SDS011;14791;52.392;13.092;2023-05-10T08:47:39;1.35;;;1.35;;
27303;SDS011;14791;52.392;13.092;2023-05-10T08:50:09;2.72;;;2.35;;
27303;SDS011;14791;52.392;13.092;2023-05-10T08:52:38;1.82;;;1.80;;
27303;SDS011;14791;52.392;13.092;2023-05-10T08:55:09;1.70;;;1.70;;
27303;SDS011;14791;52.392;13.092;2023-05-10T08:57:38;1.75;;;1.75;;
27303;SDS011;14791;52.392;13.092;2023-05-10T09:00:07;1.90;;;1.90;;
27303;SDS011;14791;52.392;13.092;2023-05-10T09:02:36;1.82;;;1.82;;
27303;SDS011;14791;52.392;13.092;2023-05-10T09:05:06;2.33;;;2.05;;
27303;SDS011;14791;52.392;13.092;2023-05-10T09:07:36;1.95;;;1.80;;
27303;SDS011;14791;52.392;13.092;2023-05-10T09:10:06;1.80;;;1.77;;
27303;SDS011;14791;52.392;13.092;2023-05-10T09:12:36;1.98;;;1.87;;
27303;SDS011;14791;52.392;13.092;2023-05-10T09:15:06;1.80;;;1.80;;
27303;SDS011;14791;52.392;13.092;2023-05-10T09:17:38;2.05;;;1.95;;
27303;SDS011;14791;52.392;13.092;2023-05-10T09:20:08;1.82;;;1.82;;
27303;SDS011;14791;52.392;13.092;2023-05-10T09:22:37;1.85;;;1.85;;
27303;SDS011;14791;52.392;13.092;2023-05-10T09:25:07;1.82;;;1.80;;
27303;SDS011;14791;52.392;13.092;2023-05-10T09:27:39;1.72;;;1.70;;
27303;SDS011;14791;52.392;13.092;2023-05-10T09:30:09;2.12;;;1.80;;
27303;SDS011;14791;52.392;13.092;2023-05-10T09:32:41;1.80;;;1.80;;
27303;SDS011;14791;52.392;13.092;2023-05-10T09:35:15;2.27;;;2.17;;
27303;SDS011;14791;52.392;13.092;2023-05-10T09:37:46;2.10;;;1.90;;
27303;SDS011;14791;52.392;13.092;2023-05-10T09:43:01;2.55;;;2.35;;
27303;SDS011;14791;52.392;13.092;2023-05-10T09:45:33;1.67;;;1.67;;
27303;SDS011;14791;52.392;13.092;2023-05-10T09:48:03;1.82;;;1.75;;
27303;SDS011;14791;52.392;13.092;2023-05-10T09:50:32;2.10;;;2.00;;
27303;SDS011;14791;52.392;13.092;2023-05-10T09:53:02;1.65;;;1.57;;
27303;SDS011;14791;52.392;13.092;2023-05-10T09:55:38;1.52;;;1.52;;
27303;SDS011;14791;52.392;13.092;2023-05-10T09:58:13;1.80;;;1.35;;
27303;SDS011;14791;52.392;13.092;2023-05-10T10:00:43;1.67;;;1.67;;
27303;SDS011;14791;52.392;13.092;2023-05-10T10:03:16;1.45;;;1.45;;
27303;SDS011;14791;52.392;13.092;2023-05-10T10:05:47;1.70;;;1.70;;
27303;SDS011;14791;52.392;13.092;2023-05-10T10:08:16;2.10;;;1.90;;
27303;SDS011;14791;52.392;13.092;2023-05-10T10:10:45;1.98;;;1.87;;
27303;SDS011;14791;52.392;13.092;2023-05-10T10:13:15;1.52;;;1.52;;
27303;SDS011;14791;52.392;13.092;2023-05-10T10:15:44;1.72;;;1.72;;
27303;SDS011;14791;52.392;13.092;2023-05-10T10:18:14;1.30;;;1.30;;
27303;SDS011;14791;52.392;13.092;2023-05-10T10:20:43;1.80;;;1.77;;
27303;SDS011;14791;52.392;13.092;2023-05-10T10:23:13;1.40;;;1.40;;
27303;SDS011;14791;52.392;13.092;2023-05-10T10:25:42;2.02;;;1.45;;
27303;SDS011;14791;52.392;13.092;2023-05-10T10:30:54;1.45;;;1.35;;
27303;SDS011;14791;52.392;13.092;2023-05-10T10:36:17;1.10;;;1.10;;
27303;SDS011;14791;52.392;13.092;2023-05-10T10:41:32;1.47;;;1.42;;
27303;SDS011;14791;52.392;13.092;2023-05-10T10:47:01;1.30;;;1.30;;
27303;SDS011;14791;52.392;13.092;2023-05-10T10:52:27;1.20;;;1.20;;
27303;SDS011;14791;52.392;13.092;2023-05-10T10:55:03;1.15;;;1.15;;
27303;SDS011;14791;52.392;13.092;2023-05-10T10:57:53;1.40;;;1.40;;
27303;SDS011;14791;52.392;13.092;2023-05-10T11:00:38;1.47;;;1.40;;
27303;SDS011;14791;52.392;13.092;2023-05-10T11:03:12;2.17;;;1.75;;
27303;SDS011;14791;52.392;13.092;2023-05-10T11:05:46;1.72;;;1.62;;
27303;SDS011;14791;52.392;13.092;2023-05-10T11:13:43;1.30;;;1.30;;
27303;SDS011;14791;52.392;13.092;2023-05-10T11:16:26;1.12;;;1.12;;
27303;SDS011;14791;52.392;13.092;2023-05-10T11:21:31;1.32;;;1.32;;
27303;SDS011;14791;52.392;13.092;2023-05-10T11:24:02;1.32;;;1.32;;
27303;SDS011;14791;52.392;13.092;2023-05-10T11:26:36;1.35;;;1.35;;
27303;SDS011;14791;52.392;13.092;2023-05-10T11:29:05;1.47;;;1.47;;
27303;SDS011;14791;52.392;13.092;2023-05-10T11:31:34;1.20;;;1.20;;
27303;SDS011;14791;52.392;13.092;2023-05-10T11:34:05;1.20;;;1.20;;
27303;SDS011;14791;52.392;13.092;2023-05-10T11:36:34;1.32;;;1.32;;
27303;SDS011;14791;52.392;13.092;2023-05-10T11:39:04;1.22;;;1.20;;
27303;SDS011;14791;52.392;13.092;2023-05-10T11:41:33;1.50;;;1.50;;
27303;SDS011;14791;52.392;13.092;2023-05-10T11:44:02;1.25;;;1.25;;
27303;SDS011;14791;52.392;13.092;2023-05-10T11:46:31;1.75;;;1.75;;
27303;SDS011;14791;52.392;13.092;2023-05-10T11:49:00;3.05;;;2.95;;
27303;SDS011;14791;52.392;13.092;2023-05-10T11:51:36;2.35;;;2.25;;
27303;SDS011;14791;52.392;13.092;2023-05-10T11:54:06;1.67;;;1.67;;
27303;SDS011;14791;52.392;13.092;2023-05-10T11:56:37;2.58;;;1.80;;
27303;SDS011;14791;52.392;13.092;2023-05-10T11:59:07;1.40;;;1.40;;
27303;SDS011;14791;52.392;13.092;2023-05-10T12:01:36;1.30;;;1.30;;
27303;SDS011;14791;52.392;13.092;2023-05-10T12:04:05;1.42;;;1.42;;
27303;SDS011;14791;52.392;13.092;2023-05-10T12:06:37;1.55;;;1.32;;
27303;SDS011;14791;52.392;13.092;2023-05-10T12:09:07;1.82;;;1.82;;
27303;SDS011;14791;52.392;13.092;2023-05-10T12:11:37;1.52;;;1.52;;
27303;SDS011;14791;52.392;13.092;2023-05-10T12:14:07;1.87;;;1.80;;
27303;SDS011;14791;52.392;13.092;2023-05-10T12:16:37;1.70;;;1.60;;
27303;SDS011;14791;52.392;13.092;2023-05-10T12:19:06;1.42;;;1.42;;
27303;SDS011;14791;52.392;13.092;2023-05-10T12:21:35;1.40;;;1.40;;
27303;SDS011;14791;52.392;13.092;2023-05-10T12:24:05;1.67;;;1.67;;
27303;SDS011;14791;52.392;13.092;2023-05-10T12:26:35;1.42;;;1.42;;
27303;SDS011;14791;52.392;13.092;2023-05-10T12:29:22;1.30;;;1.30;;
27303;SDS011;14791;52.392;13.092;2023-05-10T12:31:54;1.10;;;1.10;;
27303;SDS011;14791;52.392;13.092;2023-05-10T12:34:31;1.22;;;1.22;;
27303;SDS011;14791;52.392;13.092;2023-05-10T12:37:01;1.25;;;1.25;;
27303;SDS011;14791;52.392;13.092;2023-05-10T12:39:40;1.77;;;1.70;;
27303;SDS011;14791;52.392;13.092;2023-05-10T12:42:11;1.40;;;1.40;;
27303;SDS011;14791;52.392;13.092;2023-05-10T12:44:40;1.40;;;1.40;;
27303;SDS011;14791;52.392;13.092;2023-05-10T12:47:09;1.50;;;1.50;;
27303;SDS011;14791;52.392;13.092;2023-05-10T12:49:38;1.17;;;1.17;;
27303;SDS011;14791;52.392;13.092;2023-05-10T12:52:06;2.15;;;1.40;;
27303;SDS011;14791;52.392;13.092;2023-05-10T12:54:35;1.32;;;1.32;;
27303;SDS011;14791;52.392;13.092;2023-05-10T12:57:04;1.40;;;1.40;;
27303;SDS011;14791;52.392;13.092;2023-05-10T12:59:33;1.35;;;1.35;;
27303;SDS011;14791;52.392;13.092;2023-05-10T13:02:02;1.55;;;1.55;;
27303;SDS011;14791;52.392;13.092;2023-05-10T13:04:31;1.40;;;1.30;;
27303;SDS011;14791;52.392;13.092;2023-05-10T13:07:01;1.30;;;1.30;;
27303;SDS011;14791;52.392;13.092;2023-05-10T13:09:30;1.45;;;1.42;;
27303;SDS011;14791;52.392;13.092;2023-05-10T13:11:59;1.30;;;1.30;;
27303;SDS011;14791;52.392;13.092;2023-05-10T13:14:28;1.37;;;1.37;;
27303;SDS011;14791;52.392;13.092;2023-05-10T13:16:58;1.42;;;1.42;;
27303;SDS011;14791;52.392;13.092;2023-05-10T13:19:27;1.70;;;1.60;;
27303;SDS011;14791;52.392;13.092;2023-05-10T13:21:56;1.55;;;1.55;;
27303;SDS011;14791;52.392;13.092;2023-05-10T13:24:25;1.27;;;1.27;;
27303;SDS011;14791;52.392;13.092;2023-05-10T13:26:54;1.50;;;1.50;;
27303;SDS011;14791;52.392;13.092;2023-05-10T13:29:23;1.55;;;1.55;;
27303;SDS011;14791;52.392;13.092;2023-05-10T13:31:52;1.20;;;1.20;;
27303;SDS011;14791;52.392;13.092;2023-05-10T13:34:20;1.65;;;1.40;;
27303;SDS011;14791;52.392;13.092;2023-05-10T13:36:49;1.65;;;1.60;;
27303;SDS011;14791;52.392;13.092;2023-05-10T13:39:20;1.50;;;1.50;;
27303;SDS011;14791;52.392;13.092;2023-05-10T13:41:49;1.75;;;1.75;;
27303;SDS011;14791;52.392;13.092;2023-05-10T13:44:20;2.00;;;2.00;;
27303;SDS011;14791;52.392;13.092;2023-05-10T13:46:48;1.50;;;1.50;;
27303;SDS011;14791;52.392;13.092;2023-05-10T13:49:17;1.30;;;1.30;;
27303;SDS011;14791;52.392;13.092;2023-05-10T13:51:46;1.37;;;1.20;;
27303;SDS011;14791;52.392;13.092;2023-05-10T13:54:15;1.37;;;1.37;;
27303;SDS011;14791;52.392;13.092;2023-05-10T13:56:46;2.05;;;1.40;;
27303;SDS011;14791;52.392;13.092;2023-05-10T13:59:15;1.40;;;1.35;;
27303;SDS011;14791;52.392;13.092;2023-05-10T14:01:44;1.35;;;1.32;;
27303;SDS011;14791;52.392;13.092;2023-05-10T14:04:13;1.70;;;1.70;;
27303;SDS011;14791;52.392;13.092;2023-05-10T14:06:42;1.60;;;1.60;;
27303;SDS011;14791;52.392;13.092;2023-05-10T14:09:11;1.50;;;1.50;;
27303;SDS011;14791;52.392;13.092;2023-05-10T14:11:39;1.70;;;1.70;;
27303;SDS011;14791;52.392;13.092;2023-05-10T14:14:10;1.85;;;1.75;;
27303;SDS011;14791;52.392;13.092;2023-05-10T14:16:43;1.30;;;1.30;;
27303;SDS011;14791;52.392;13.092;2023-05-10T14:19:12;1.65;;;1.65;;
27303;SDS011;14791;52.392;13.092;2023-05-10T14:21:41;1.55;;;1.50;;
27303;SDS011;14791;52.392;13.092;2023-05-10T14:24:10;1.30;;;1.30;;
27303;SDS011;14791;52.392;13.092;2023-05-10T14:26:39;1.45;;;1.35;;
27303;SDS011;14791;52.392;13.092;2023-05-10T14:29:08;1.42;;;1.42;;
27303;SDS011;14791;52.392;13.092;2023-05-10T14:31:37;1.37;;;1.37;;
27303;SDS011;14791;52.392;13.092;2023-05-10T14:34:06;1.47;;;1.47;;
27303;SDS011;14791;52.392;13.092;2023-05-10T14:36:35;2.08;;;2.08;;
27303;SDS011;14791;52.392;13.092;2023-05-10T14:39:03;1.60;;;1.50;;
27303;SDS011;14791;52.392;13.092;2023-05-10T14:41:33;1.77;;;1.77;;
27303;SDS011;14791;52.392;13.092;2023-05-10T14:44:02;1.65;;;1.55;;
27303;SDS011;14791;52.392;13.092;2023-05-10T14:46:31;1.85;;;1.80;;
27303;SDS011;14791;52.392;13.092;2023-05-10T14:49:01;1.77;;;1.77;;
27303;SDS011;14791;52.392;13.092;2023-05-10T14:51:30;1.95;;;1.65;;
27303;SDS011;14791;52.392;13.092;2023-05-10T14:53:59;1.40;;;1.40;;
27303;SDS011;14791;52.392;13.092;2023-05-10T14:56:29;2.83;;;1.27;;
27303;SDS011;14791;52.392;13.092;2023-05-10T14:58:58;1.50;;;1.40;;
27303;SDS011;14791;52.392;13.092;2023-05-10T15:01:27;1.50;;;1.50;;
27303;SDS011;14791;52.392;13.092;2023-05-10T15:03:56;1.50;;;1.50;;
27303;SDS011;14791;52.392;13.092;2023-05-10T15:06:30;1.60;;;1.60;;
27303;SDS011;14791;52.392;13.092;2023-05-10T15:08:59;1.60;;;1.60;;
27303;SDS011;14791;52.392;13.092;2023-05-10T15:11:30;1.62;;;1.52;;
27303;SDS011;14791;52.392;13.092;2023-05-10T15:13:59;1.95;;;1.90;;
27303;SDS011;14791;52.392;13.092;2023-05-10T15:16:28;1.90;;;1.85;;
27303;SDS011;14791;52.392;13.092;2023-05-10T15:18:57;2.45;;;2.45;;
27303;SDS011;14791;52.392;13.092;2023-05-10T15:21:26;2.30;;;2.20;;
27303;SDS011;14791;52.392;13.092;2023-05-10T15:23:55;2.15;;;2.15;;